Sunday, January 25, 2015
22:18 UTC
  |  Log In   |  Register Free
Airport Search:

Lenawee County Airport
(KADG)

Lenawee County Airport Diagram
No Airport Diagram Available

FAA data valid effective January 08, 2015 - March 05, 2015 (unless otherwise noted).

 
 
 
 
 
 
 
 
 
 
 
 
 
 

Current Aviation Weather for Lenawee County Airport (KADG)

The most recent METAR observation for KADG was updated at: 2207
METAR Summary (Translated METAR)
KADG
252153Z AUTO 08012G23KT 10SM OVC047 M04/M10 A2988 RMK AO2 SLP131 T10441100
KUSE
252155Z AUTO 06018KT 1 1/4SM -SN CLR M06/M08 A2987 RMK AO2
(15.6 nm SW from KADG)
KDUH
252154Z AUTO 06008KT 5SM -SN OVC021 M05/M10 A2990 RMK AO2
(20.5 nm SE from KADG)
TAF
No TAF information found within 50 nm of KADG
  Airport Weather Conditions for KADG

 Current Weather at ADG
24° F
Overcast
East winds at 13.8 mph
ADG NOAA Radar

Pressure: 29.88 in
Humidity: 65%
Wind: from the East at 13.8 gusting to 26.5 MPH (12 gusting to 23 KT)
Dew Point: 14.0°F
Visibility: 10.00 mi


Airport Weather Forecast for KADG

Translated METAR and TAF for KADG
Translated METAR for KADG (2218 UTC 25 January 2015)
found at http://aviationweather.gov/adds/metars/
 
METAR text: KADG 252153Z AUTO 08012G23KT 10SM OVC047 M04/M10 A2988 RMK AO2 SLP131 T10441100
Conditions at: KADG (ADRIAN , MI, US) observed 2153 UTC 25 January 2015
Temperature: -4.4°C (24°F)
Dewpoint: -10.0°C (14°F) [RH = 65%]
Pressure (altimeter): 29.88 inches Hg (1011.9 mb)
[Sea-level pressure: 1013.1 mb]
Winds: from the E (80 degrees) at 14 MPH (12 knots; 6.2 m/s)
gusting to 26 MPH (23 knots; 12.0 m/s)
Visibility: 10 or more miles (16+ km)
Ceiling: 4700 feet AGL
Clouds: overcast cloud deck at 4700 feet AGL
Weather: automated observation with no human augmentation;
there may or may not be significant weather present at this time
Translated TAF for KADG

There is no translated TAF available for this airport

Find All Airport Services Find A Hotel Find A Rental Car Find A Golf Course Find A Restaurant $100 Hamburger



FBO's on the Field
FBO Company Facility Photos Services Transportation Aviation Fuel Prices: Prices include tax
Catering Weather Repair Courtesy Rental Type 100LL JetA JetA+ MOGAS 8087
 
Lenawee County Airport

This FBO has not yet been rated
FS:Avfuel
Last Updated: Jan-22
Login to update fuel prices
SS:
Contact Lenawee County AirportMore FBO Information
 
Add another FBO Facility Photos Catering Weather Repair Courtesy Rental Type 100LL JetA JetA+ MOGAS 8087
Services Transportation Aviation Fuel Prices: Prices include tax


model-print
model-print
model-print
model-print